Abbotsford, Canada
Current Conditions -  °F | °C
As of 12:00 PM on Sunday 23 Nov 2014 (Local Time) from CYXX Reporting Station
Rain Showers Rain Showers  
Wind Chill: 50°   Ceiling: 2500
Heat Index: 50°   Visibility: 15mi
Dew Point: 43°   Wind: 16mph
Humidity: 76%   Direction: 220°SW
Pressure: 30.05"   Gusts: 23mph
Location:  49.05°N, 122.33°W
Report Text: CYXX 232000Z 22014G20KT 15SM VCSH BKN025TCU BKN120 10/06 A3005 RMK TCU5AC2 VCSH NE-E SLP178
Loading
Personal Weather Stations






























Interactive Weather Map New forecast layout! Learn more

10-Day Weather Forecast

Advertisements
Track Severe Weather on mobile